Time,TemperatureF,DewpointF,PressureIn,WindDirection,WindDirectionDegrees,WindSpeedMPH,WindSpeedGustMPH,Humidity,HourlyPrecipIn,Conditions,Clouds,dailyrainin,SoftwareType,DateUTC
2013-04-25 00:01:00,21.7,4.2,21.82,East,90,0.0,0.0,46,0.00,,---,0.00,VWS V14.01,2013-04-25 06:01:00,
2013-04-25 00:06:00,21.2,4.6,21.82,East,90,0.0,0.0,48,0.00,,---,0.00,VWS V14.01,2013-04-25 06:06:00,
2013-04-25 00:11:00,21.4,4.3,21.82,SE,135,3.1,3.6,47,0.00,,---,0.00,VWS V14.01,2013-04-25 06:11:00,
2013-04-25 00:16:00,21.2,4.1,21.82,SE,135,0.0,0.0,47,0.00,,---,0.00,VWS V14.01,2013-04-25 06:16:00,
2013-04-25 00:21:00,20.8,3.8,21.82,SE,135,0.0,0.0,47,0.00,,---,0.00,VWS V14.01,2013-04-25 06:21:00,
2013-04-25 00:26:00,20.7,3.6,21.82,SE,135,0.0,0.0,47,0.00,,---,0.00,VWS V14.01,2013-04-25 06:26:00,
2013-04-25 00:31:00,19.9,3.4,21.82,SE,135,0.0,0.0,48,0.00,,---,0.00,VWS V14.01,2013-04-25 06:31:00,
2013-04-25 00:36:00,19.8,3.3,21.82,East,90,0.0,0.0,48,0.00,,---,0.00,VWS V14.01,2013-04-25 06:36:00,
2013-04-25 00:41:00,19.9,3.4,21.82,East,90,0.0,0.0,48,0.00,,---,0.00,VWS V14.01,2013-04-25 06:41:00,
2013-04-25 00:46:00,19.8,2.8,21.79,East,90,0.0,0.0,47,0.00,,---,0.00,VWS V14.01,2013-04-25 06:46:00,
2013-04-25 00:51:00,20.1,3.1,21.79,East,90,0.0,0.0,47,0.00,,---,0.00,VWS V14.01,2013-04-25 06:51:00,
2013-04-25 00:56:00,19.9,3.0,21.79,East,90,4.9,4.9,47,0.00,,---,0.00,VWS V14.01,2013-04-25 06:56:00,
2013-04-25 01:02:00,20.1,3.1,21.79,South,180,0.0,0.0,47,0.00,,---,0.00,VWS V14.01,2013-04-25 07:02:00,
2013-04-25 01:07:00,20.1,3.6,21.79,South,180,0.0,0.0,48,0.00,,---,0.00,VWS V14.01,2013-04-25 07:07:00,
2013-04-25 01:12:00,19.9,3.0,21.79,East,90,0.0,0.0,47,0.00,,---,0.00,VWS V14.01,2013-04-25 07:12:00,
2013-04-25 01:17:00,20.1,2.7,21.79,NE,45,2.2,2.2,46,0.00,,---,0.00,VWS V14.01,2013-04-25 07:17:00,
2013-04-25 01:22:00,19.9,3.0,21.79,NE,45,0.0,0.0,47,0.00,,---,0.00,VWS V14.01,2013-04-25 07:22:00,
2013-04-25 01:27:00,19.6,2.2,21.79,NE,45,0.0,0.0,46,0.00,,---,0.00,VWS V14.01,2013-04-25 07:27:00,
2013-04-25 01:32:00,19.0,2.1,21.79,NE,45,0.0,0.0,47,0.00,,---,0.00,VWS V14.01,2013-04-25 07:32:00,
2013-04-25 01:37:00,19.0,2.1,21.79,NE,45,0.0,0.0,47,0.00,,---,0.00,VWS V14.01,2013-04-25 07:37:00,
2013-04-25 01:42:00,18.5,2.1,21.79,NE,45,0.0,0.0,48,0.00,,---,0.00,VWS V14.01,2013-04-25 07:42:00,
2013-04-25 01:47:00,18.1,1.8,21.79,NE,45,0.0,0.0,48,0.00,,---,0.00,VWS V14.01,2013-04-25 07:47:00,
2013-04-25 01:52:00,17.8,1.9,21.79,NE,45,0.0,0.0,49,0.00,,---,0.00,VWS V14.01,2013-04-25 07:52:00,
2013-04-25 01:58:00,17.6,1.7,21.79,NE,45,0.0,0.0,49,0.00,,---,0.00,VWS V14.01,2013-04-25 07:58:00,
2013-04-25 02:03:00,17.4,2.0,21.79,NE,45,0.0,0.0,50,0.00,,---,0.00,VWS V14.01,2013-04-25 08:03:00,
2013-04-25 02:08:00,17.2,1.8,21.79,NE,45,0.0,0.0,50,0.00,,---,0.00,VWS V14.01,2013-04-25 08:08:00,
2013-04-25 02:13:00,17.1,1.6,21.79,NE,45,0.0,0.0,50,0.00,,---,0.00,VWS V14.01,2013-04-25 08:13:00,
2013-04-25 02:18:00,17.2,1.4,21.79,NE,45,0.0,0.0,49,0.00,,---,0.00,VWS V14.01,2013-04-25 08:18:00,
2013-04-25 02:23:00,17.1,1.2,21.79,NE,45,0.0,0.0,49,0.00,,---,0.00,VWS V14.01,2013-04-25 08:23:00,
2013-04-25 02:28:00,16.7,0.9,21.79,NE,45,0.0,0.0,49,0.00,,---,0.00,VWS V14.01,2013-04-25 08:28:00,
2013-04-25 02:33:00,16.2,0.4,21.79,NE,45,0.0,0.0,49,0.00,,---,0.00,VWS V14.01,2013-04-25 08:33:00,
2013-04-25 02:38:00,16.2,0.8,21.79,NE,45,0.0,0.0,50,0.00,,---,0.00,VWS V14.01,2013-04-25 08:38:00,
2013-04-25 02:44:00,16.7,1.3,21.79,NE,45,0.0,0.0,50,0.00,,---,0.00,VWS V14.01,2013-04-25 08:44:00,
2013-04-25 02:49:00,17.1,1.6,21.79,NE,45,0.0,0.0,50,0.00,,---,0.00,VWS V14.01,2013-04-25 08:49:00,
2013-04-25 02:54:00,16.5,1.6,21.79,NE,45,0.0,0.0,51,0.00,,---,0.00,VWS V14.01,2013-04-25 08:54:00,
2013-04-25 02:59:00,16.0,0.6,21.79,NE,45,0.0,0.0,50,0.00,,---,0.00,VWS V14.01,2013-04-25 08:59:00,
2013-04-25 03:04:00,16.0,0.6,21.76,NE,45,0.0,0.0,50,0.00,,---,0.00,VWS V14.01,2013-04-25 09:04:00,
2013-04-25 03:09:00,17.4,1.5,21.76,NE,45,0.0,0.0,49,0.00,,---,0.00,VWS V14.01,2013-04-25 09:09:00,
2013-04-25 03:14:00,17.2,0.9,21.76,NE,45,0.0,0.0,48,0.00,,---,0.00,VWS V14.01,2013-04-25 09:14:00,
2013-04-25 03:19:00,17.1,0.8,21.76,NE,45,0.0,0.0,48,0.00,,---,0.00,VWS V14.01,2013-04-25 09:19:00,
2013-04-25 03:24:00,16.7,0.4,21.76,NE,45,0.0,0.0,48,0.00,,---,0.00,VWS V14.01,2013-04-25 09:24:00,
2013-04-25 03:29:00,16.7,0.9,21.76,NE,45,0.0,0.0,49,0.00,,---,0.00,VWS V14.01,2013-04-25 09:29:00,
2013-04-25 03:34:00,16.5,0.7,21.79,NE,45,0.0,0.0,49,0.00,,---,0.00,VWS V14.01,2013-04-25 09:34:00,
2013-04-25 03:39:00,15.8,0.5,21.79,NE,45,0.0,0.0,50,0.00,,---,0.00,VWS V14.01,2013-04-25 09:39:00,
2013-04-25 03:44:00,16.0,0.6,21.79,NE,45,0.0,0.0,50,0.00,,---,0.00,VWS V14.01,2013-04-25 09:44:00,
2013-04-25 03:49:00,16.0,0.6,21.76,NE,45,0.0,0.0,50,0.00,,---,0.00,VWS V14.01,2013-04-25 09:49:00,
2013-04-25 03:55:00,16.3,0.5,21.76,NE,45,0.0,0.0,49,0.00,,---,0.00,VWS V14.01,2013-04-25 09:55:00,
2013-04-25 04:00:00,17.4,1.1,21.76,NE,45,0.0,0.0,48,0.00,,---,0.00,VWS V14.01,2013-04-25 10:00:00,
2013-04-25 04:05:00,17.2,0.9,21.79,NE,45,0.0,0.0,48,0.00,,---,0.00,VWS V14.01,2013-04-25 10:05:00,
2013-04-25 04:10:00,17.4,1.1,21.79,NE,45,0.0,0.0,48,0.00,,---,0.00,VWS V14.01,2013-04-25 10:10:00,
2013-04-25 04:15:00,17.2,0.9,21.76,NE,45,0.0,0.0,48,0.00,,---,0.00,VWS V14.01,2013-04-25 10:15:00,
2013-04-25 04:20:00,16.7,0.9,21.76,NE,45,0.0,0.0,49,0.00,,---,0.00,VWS V14.01,2013-04-25 10:20:00,
2013-04-25 04:25:00,16.9,0.6,21.76,NE,45,0.0,0.0,48,0.00,,---,0.00,VWS V14.01,2013-04-25 10:25:00,
2013-04-25 04:30:00,16.5,1.1,21.76,NE,45,0.0,0.0,50,0.00,,---,0.00,VWS V14.01,2013-04-25 10:30:00,
2013-04-25 04:35:00,16.5,0.7,21.76,NE,45,0.0,0.0,49,0.00,,---,0.00,VWS V14.01,2013-04-25 10:35:00,
2013-04-25 04:40:00,17.1,0.8,21.76,NE,45,0.0,0.0,48,0.00,,---,0.00,VWS V14.01,2013-04-25 10:40:00,
2013-04-25 04:45:00,17.1,0.8,21.76,NE,45,0.0,2.2,48,0.00,,---,0.00,VWS V14.01,2013-04-25 10:45:00,
2013-04-25 04:50:00,17.6,2.1,21.76,NE,45,0.0,0.0,50,0.00,,---,0.00,VWS V14.01,2013-04-25 10:50:00,
2013-04-25 04:55:00,18.5,2.1,21.76,NE,45,0.0,0.0,48,0.00,,---,0.00,VWS V14.01,2013-04-25 10:55:00,
2013-04-25 05:01:00,18.9,2.9,21.76,NE,45,3.1,3.6,49,0.00,,---,0.00,VWS V14.01,2013-04-25 11:01:00,
2013-04-25 05:06:00,18.5,1.6,21.76,NE,45,0.0,2.2,47,0.00,,---,0.00,VWS V14.01,2013-04-25 11:06:00,
2013-04-25 05:11:00,18.3,1.0,21.76,NE,45,0.0,0.0,46,0.00,,---,0.00,VWS V14.01,2013-04-25 11:11:00,
2013-04-25 05:16:00,18.1,1.3,21.76,NE,45,0.0,0.0,47,0.00,,---,0.00,VWS V14.01,2013-04-25 11:16:00,
2013-04-25 05:21:00,18.0,0.7,21.76,NE,45,0.0,0.0,46,0.00,,---,0.00,VWS V14.01,2013-04-25 11:21:00,
2013-04-25 05:26:00,18.1,0.9,21.76,NE,45,0.0,0.0,46,0.00,,---,0.00,VWS V14.01,2013-04-25 11:26:00,
2013-04-25 05:31:00,18.7,1.8,21.76,NE,45,0.0,0.0,47,0.00,,---,0.00,VWS V14.01,2013-04-25 11:31:00,
2013-04-25 05:36:00,18.3,1.5,21.76,NE,45,0.0,0.0,47,0.00,,---,0.00,VWS V14.01,2013-04-25 11:36:00,
2013-04-25 05:41:00,18.1,1.3,21.76,NE,45,0.0,0.0,47,0.00,,---,0.00,VWS V14.01,2013-04-25 11:41:00,
2013-04-25 05:46:00,17.4,0.6,21.76,NE,45,3.1,3.1,47,0.00,,---,0.00,VWS V14.01,2013-04-25 11:46:00,
2013-04-25 05:51:00,17.4,0.6,21.76,NE,45,0.0,0.0,47,0.00,,---,0.00,VWS V14.01,2013-04-25 11:51:00,
2013-04-25 05:56:00,17.1,0.3,21.76,NE,45,0.0,0.0,47,0.00,,---,0.00,VWS V14.01,2013-04-25 11:56:00,
2013-04-25 06:05:00,16.7,0.0,21.76,NE,45,0.0,0.0,47,0.00,,---,0.00,VWS V14.01,2013-04-25 12:05:00,
2013-04-25 06:10:00,16.7,0.0,21.76,NE,45,0.0,0.0,47,0.00,,---,0.00,VWS V14.01,2013-04-25 12:10:00,
2013-04-25 06:15:00,16.7,0.0,21.76,NE,45,0.0,0.0,47,0.00,,---,0.00,VWS V14.01,2013-04-25 12:15:00,
2013-04-25 06:20:00,17.2,0.5,21.76,NE,45,0.0,0.0,47,0.00,,---,0.00,VWS V14.01,2013-04-25 12:20:00,
2013-04-25 06:25:00,17.1,0.3,21.76,North,0,0.0,0.0,47,0.00,,---,0.00,VWS V14.01,2013-04-25 12:25:00,
2013-04-25 06:30:00,17.1,-0.1,21.76,North,0,0.0,0.0,46,0.00,,---,0.00,VWS V14.01,2013-04-25 12:30:00,
2013-04-25 06:35:00,16.7,0.0,21.76,North,0,0.0,0.0,47,0.00,,---,0.00,VWS V14.01,2013-04-25 12:35:00,
2013-04-25 06:40:00,16.9,-0.3,21.76,North,0,0.0,0.0,46,0.00,,---,0.00,VWS V14.01,2013-04-25 12:40:00,
2013-04-25 06:45:00,17.1,-0.1,21.76,North,0,0.0,0.0,46,0.00,,---,0.00,VWS V14.01,2013-04-25 12:45:00,
2013-04-25 06:50:00,17.6,0.3,21.76,North,0,0.0,0.0,46,0.00,,---,0.00,VWS V14.01,2013-04-25 12:50:00,
2013-04-25 06:55:00,18.0,0.7,21.76,North,0,0.0,2.7,46,0.00,,---,0.00,VWS V14.01,2013-04-25 12:55:00,
2013-04-25 07:00:00,18.5,1.2,21.76,North,0,0.0,0.0,46,0.00,,---,0.00,VWS V14.01,2013-04-25 13:00:00,
2013-04-25 07:05:00,18.5,1.2,21.76,North,0,0.0,0.0,46,0.00,,---,0.00,VWS V14.01,2013-04-25 13:05:00,
2013-04-25 07:10:00,19.2,1.4,21.76,North,0,0.0,0.0,45,0.00,,---,0.00,VWS V14.01,2013-04-25 13:10:00,
2013-04-25 07:16:00,20.8,2.9,21.76,North,0,3.1,3.1,45,0.00,,---,0.00,VWS V14.01,2013-04-25 13:16:00,
2013-04-25 07:21:00,20.8,2.9,21.76,North,0,0.0,2.2,45,0.00,,---,0.00,VWS V14.01,2013-04-25 13:21:00,
2013-04-25 07:26:00,24.3,5.0,21.76,WNW,292,2.7,7.2,43,0.00,,---,0.00,VWS V14.01,2013-04-25 13:26:00,
2013-04-25 07:31:00,28.4,7.7,21.76,NW,315,6.3,8.7,41,0.00,,---,0.00,VWS V14.01,2013-04-25 13:31:00,
2013-04-25 07:36:00,30.2,7.1,21.76,NW,315,5.8,5.8,37,0.00,,---,0.00,VWS V14.01,2013-04-25 13:36:00,
2013-04-25 07:41:00,31.5,7.0,21.76,NW,315,6.3,6.3,35,0.00,,---,0.00,VWS V14.01,2013-04-25 13:41:00,
2013-04-25 07:46:00,32.7,7.5,21.76,NW,315,8.1,8.1,34,0.00,,---,0.00,VWS V14.01,2013-04-25 13:46:00,
2013-04-25 07:51:00,33.3,7.3,21.76,NW,315,5.8,5.8,33,0.00,,---,0.00,VWS V14.01,2013-04-25 13:51:00,
2013-04-25 07:56:00,33.4,7.4,21.76,NW,315,4.5,4.5,33,0.00,,---,0.00,VWS V14.01,2013-04-25 13:56:00,
2013-04-25 08:01:00,33.3,7.3,21.76,NW,315,0.0,4.9,33,0.00,,---,0.00,VWS V14.01,2013-04-25 14:01:00,
2013-04-25 08:06:00,33.6,7.6,21.76,NW,315,4.0,5.8,33,0.00,,---,0.00,VWS V14.01,2013-04-25 14:06:00,
2013-04-25 08:11:00,33.8,7.1,21.76,NW,315,5.8,7.6,32,0.00,,---,0.00,VWS V14.01,2013-04-25 14:11:00,
2013-04-25 08:16:00,34.2,7.4,21.76,NW,315,6.3,7.6,32,0.00,,---,0.00,VWS V14.01,2013-04-25 14:16:00,
2013-04-25 08:22:00,35.1,8.2,21.76,NW,315,5.8,5.8,32,0.00,,---,0.00,VWS V14.01,2013-04-25 14:22:00,
2013-04-25 08:27:00,35.1,8.2,21.76,NW,315,5.4,5.4,32,0.00,,---,0.00,VWS V14.01,2013-04-25 14:27:00,
2013-04-25 08:32:00,35.8,8.8,21.76,NW,315,5.4,5.4,32,0.00,,---,0.00,VWS V14.01,2013-04-25 14:32:00,
2013-04-25 08:37:00,36.7,8.9,21.76,NW,315,2.7,5.8,31,0.00,,---,0.00,VWS V14.01,2013-04-25 14:37:00,
2013-04-25 08:42:00,37.2,9.4,21.76,NW,315,3.6,5.4,31,0.00,,---,0.00,VWS V14.01,2013-04-25 14:42:00,
2013-04-25 08:47:00,38.1,10.2,21.76,WNW,292,3.1,4.9,31,0.00,,---,0.00,VWS V14.01,2013-04-25 14:47:00,
2013-04-25 08:52:00,38.7,10.6,21.76,NW,315,4.9,4.9,31,0.00,,---,0.00,VWS V14.01,2013-04-25 14:52:00,
2013-04-25 08:57:00,39.0,11.0,21.76,NW,315,4.0,4.0,31,0.00,,---,0.00,VWS V14.01,2013-04-25 14:57:00,
2013-04-25 09:02:00,39.7,10.9,21.76,NW,315,3.1,3.1,30,0.00,,---,0.00,VWS V14.01,2013-04-25 15:02:00,
2013-04-25 09:07:00,39.7,10.9,21.76,NW,315,3.6,3.6,30,0.00,,---,0.00,VWS V14.01,2013-04-25 15:07:00,
2013-04-25 09:12:00,41.2,11.4,21.76,WNW,292,0.0,3.1,29,0.00,,---,0.00,VWS V14.01,2013-04-25 15:12:00,
2013-04-25 09:17:00,41.2,11.4,21.76,NW,315,3.6,3.6,29,0.00,,---,0.00,VWS V14.01,2013-04-25 15:17:00,
2013-04-25 09:22:00,41.5,11.7,21.76,NW,315,2.7,4.9,29,0.00,,---,0.00,VWS V14.01,2013-04-25 15:22:00,
2013-04-25 09:27:00,42.4,12.4,21.76,NW,315,4.0,4.0,29,0.00,,---,0.00,VWS V14.01,2013-04-25 15:27:00,
2013-04-25 09:32:00,43.3,13.2,21.76,NW,315,5.4,5.4,29,0.00,,---,0.00,VWS V14.01,2013-04-25 15:32:00,
2013-04-25 09:37:00,45.5,14.3,21.76,NE,45,5.8,8.7,28,0.00,,---,0.00,VWS V14.01,2013-04-25 15:37:00,
2013-04-25 09:42:00,45.9,14.6,21.76,NW,315,2.2,5.4,28,0.00,,---,0.00,VWS V14.01,2013-04-25 15:42:00,
2013-04-25 09:48:00,47.3,15.9,21.76,West,270,0.0,0.0,28,0.00,,---,0.00,VWS V14.01,2013-04-25 15:48:00,
2013-04-25 09:53:00,46.9,14.7,21.76,West,270,4.5,8.7,27,0.00,,---,0.00,VWS V14.01,2013-04-25 15:53:00,
2013-04-25 09:58:00,48.0,15.6,21.76,SE,135,2.7,3.1,27,0.00,,---,0.00,VWS V14.01,2013-04-25 15:58:00,
2013-04-25 10:03:00,49.3,16.7,21.76,SW,225,0.0,0.0,27,0.00,,---,0.00,VWS V14.01,2013-04-25 16:03:00,
2013-04-25 10:08:00,47.5,15.2,21.76,SSW,202,0.0,7.6,27,0.00,,---,0.00,VWS V14.01,2013-04-25 16:08:00,
2013-04-25 10:13:00,47.3,15.0,21.76,West,270,4.0,4.0,27,0.00,,---,0.00,VWS V14.01,2013-04-25 16:13:00,
2013-04-25 10:18:00,48.7,16.3,21.76,West,270,7.6,8.3,27,0.00,,---,0.00,VWS V14.01,2013-04-25 16:18:00,
2013-04-25 10:23:00,48.0,15.6,21.76,West,270,2.7,3.1,27,0.00,,---,0.00,VWS V14.01,2013-04-25 16:23:00,
2013-04-25 10:28:00,46.4,14.2,21.76,NW,315,3.1,3.1,27,0.00,,---,0.00,VWS V14.01,2013-04-25 16:28:00,
2013-04-25 10:33:00,47.7,15.3,21.76,NW,315,3.1,7.2,27,0.00,,---,0.00,VWS V14.01,2013-04-25 16:33:00,
2013-04-25 10:38:00,47.5,15.2,21.76,NW,315,2.7,2.7,27,0.00,,---,0.00,VWS V14.01,2013-04-25 16:38:00,
2013-04-25 10:43:00,47.3,15.0,21.76,WSW,248,2.7,6.3,27,0.00,,---,0.00,VWS V14.01,2013-04-25 16:43:00,
2013-04-25 10:48:00,46.9,14.7,21.76,NW,315,3.1,6.3,27,0.00,,---,0.00,VWS V14.01,2013-04-25 16:48:00,
2013-04-25 10:53:00,46.2,14.9,21.76,WNW,292,4.9,4.9,28,0.00,,---,0.00,VWS V14.01,2013-04-25 16:53:00,
2013-04-25 10:58:00,46.9,14.7,21.76,SW,225,7.2,7.2,27,0.00,,---,0.00,VWS V14.01,2013-04-25 16:58:00,
2013-04-25 11:03:00,46.6,14.4,21.76,WNW,292,4.9,5.4,27,0.00,,---,0.00,VWS V14.01,2013-04-25 17:03:00,
2013-04-25 11:08:00,46.9,14.7,21.76,West,270,4.0,4.0,27,0.00,,---,0.00,VWS V14.01,2013-04-25 17:08:00,
2013-04-25 11:13:00,47.3,15.0,21.76,NW,315,3.6,7.2,27,0.00,,---,0.00,VWS V14.01,2013-04-25 17:13:00,
2013-04-25 11:18:00,48.2,15.8,21.76,WNW,292,2.2,3.6,27,0.00,,---,0.00,VWS V14.01,2013-04-25 17:18:00,
2013-04-25 11:23:00,48.4,16.0,21.76,West,270,3.1,3.1,27,0.00,,---,0.00,VWS V14.01,2013-04-25 17:23:00,
2013-04-25 11:28:00,49.1,16.6,21.76,WNW,292,3.6,3.6,27,0.00,,---,0.00,VWS V14.01,2013-04-25 17:28:00,
2013-04-25 11:34:00,47.7,15.3,21.76,NW,315,5.4,7.6,27,0.00,,---,0.00,VWS V14.01,2013-04-25 17:34:00,
2013-04-25 11:39:00,48.6,16.1,21.76,NW,315,8.1,8.1,27,0.00,,---,0.00,VWS V14.01,2013-04-25 17:39:00,
2013-04-25 11:44:00,48.6,16.1,21.76,NW,315,4.9,4.9,27,0.00,,---,0.00,VWS V14.01,2013-04-25 17:44:00,
2013-04-25 11:49:00,48.4,16.0,21.76,NW,315,3.6,7.2,27,0.00,,---,0.00,VWS V14.01,2013-04-25 17:49:00,
2013-04-25 11:54:00,48.7,16.3,21.76,West,270,3.1,4.0,27,0.04,,---,0.04,VWS V14.01,2013-04-25 17:54:00,
2013-04-25 11:59:00,48.4,16.0,21.76,SW,225,3.6,8.1,27,0.04,,---,0.04,VWS V14.01,2013-04-25 17:59:00,
2013-04-25 12:04:00,48.7,16.3,21.76,West,270,6.3,6.3,27,0.04,,---,0.04,VWS V14.01,2013-04-25 18:04:00,
2013-04-25 12:09:00,48.9,16.4,21.76,West,270,5.4,5.4,27,0.04,,---,0.04,VWS V14.01,2013-04-25 18:09:00,
2013-04-25 12:14:00,49.5,16.9,21.76,WSW,248,7.6,7.6,27,0.08,,---,0.08,VWS V14.01,2013-04-25 18:14:00,
2013-04-25 12:19:00,49.8,17.2,21.73,SW,225,4.0,4.0,27,0.08,,---,0.08,VWS V14.01,2013-04-25 18:19:00,
2013-04-25 12:24:00,49.3,16.7,21.73,West,270,4.0,9.6,27,0.08,,---,0.08,VWS V14.01,2013-04-25 18:24:00,
2013-04-25 12:29:00,49.8,17.2,21.73,WNW,292,3.1,4.5,27,0.08,,---,0.08,VWS V14.01,2013-04-25 18:29:00,
2013-04-25 12:34:00,49.6,17.0,21.73,NW,315,3.1,8.1,27,0.13,,---,0.13,VWS V14.01,2013-04-25 18:34:00,
2013-04-25 12:39:00,50.2,16.6,21.73,NW,315,3.6,3.6,26,0.13,,---,0.13,VWS V14.01,2013-04-25 18:39:00,
2013-04-25 12:44:00,50.0,17.4,21.73,NW,315,3.6,4.0,27,0.13,,---,0.13,VWS V14.01,2013-04-25 18:44:00,
2013-04-25 12:49:00,50.5,17.0,21.73,South,180,4.0,4.0,26,0.13,,---,0.13,VWS V14.01,2013-04-25 18:49:00,
2013-04-25 12:54:00,51.4,17.7,21.73,West,270,2.2,2.7,26,0.09,,---,0.13,VWS V14.01,2013-04-25 18:54:00,
2013-04-25 13:00:00,51.1,17.4,21.73,NW,315,4.5,6.3,26,0.09,,---,0.13,VWS V14.01,2013-04-25 19:00:00,
2013-04-25 13:05:00,50.5,17.0,21.73,NW,315,2.7,2.7,26,0.09,,---,0.13,VWS V14.01,2013-04-25 19:05:00,
2013-04-25 13:10:00,50.5,17.0,21.73,West,270,2.7,7.2,26,0.09,,---,0.13,VWS V14.01,2013-04-25 19:10:00,
2013-04-25 13:15:00,50.9,17.2,21.73,West,270,2.7,3.6,26,0.05,,---,0.13,VWS V14.01,2013-04-25 19:15:00,
2013-04-25 13:20:00,51.8,18.9,21.73,West,270,0.0,3.1,27,0.05,,---,0.13,VWS V14.01,2013-04-25 19:20:00,
2013-04-25 13:25:00,51.3,17.6,21.73,NW,315,10.1,10.1,26,0.05,,---,0.13,VWS V14.01,2013-04-25 19:25:00,
2013-04-25 13:30:00,51.3,17.6,21.73,WSW,248,3.1,3.1,26,0.05,,---,0.13,VWS V14.01,2013-04-25 19:30:00,
2013-04-25 13:35:00,50.5,17.8,21.73,West,270,0.0,0.0,27,0.00,,---,0.13,VWS V14.01,2013-04-25 19:35:00,
2013-04-25 13:40:00,50.5,17.8,21.73,WNW,292,5.4,5.4,27,0.00,,---,0.13,VWS V14.01,2013-04-25 19:40:00,
2013-04-25 13:45:00,50.9,17.2,21.73,NW,315,6.3,6.3,26,0.00,,---,0.13,VWS V14.01,2013-04-25 19:45:00,
2013-04-25 13:50:00,50.9,18.1,21.73,NW,315,3.1,4.0,27,0.00,,---,0.13,VWS V14.01,2013-04-25 19:50:00,
2013-04-25 13:55:00,52.3,18.5,21.73,WNW,292,3.6,7.6,26,0.00,,---,0.13,VWS V14.01,2013-04-25 19:55:00,
2013-04-25 14:00:00,51.6,17.9,21.70,NW,315,2.2,4.9,26,0.00,,---,0.13,VWS V14.01,2013-04-25 20:00:00,
2013-04-25 14:05:00,53.6,19.6,21.70,NW,315,2.7,3.1,26,0.00,,---,0.13,VWS V14.01,2013-04-25 20:05:00,
2013-04-25 14:10:00,53.1,19.1,21.70,NW,315,4.9,4.9,26,0.00,,---,0.13,VWS V14.01,2013-04-25 20:10:00,
2013-04-25 14:15:00,53.1,19.1,21.70,East,90,3.6,3.6,26,0.00,,---,0.13,VWS V14.01,2013-04-25 20:15:00,
2013-04-25 14:20:00,52.2,18.3,21.70,East,90,2.7,3.6,26,0.00,,---,0.13,VWS V14.01,2013-04-25 20:20:00,
2013-04-25 14:25:00,52.0,18.2,21.70,SE,135,8.3,8.3,26,0.00,,---,0.13,VWS V14.01,2013-04-25 20:25:00,
2013-04-25 14:30:00,53.1,19.1,21.73,NE,45,0.0,4.9,26,0.00,,---,0.13,VWS V14.01,2013-04-25 20:30:00,
2013-04-25 14:35:00,54.3,20.2,21.73,South,180,2.7,5.4,26,0.00,,---,0.13,VWS V14.01,2013-04-25 20:35:00,
2013-04-25 14:41:00,55.2,21.0,21.73,SW,225,2.7,7.6,26,0.00,,---,0.13,VWS V14.01,2013-04-25 20:41:00,
2013-04-25 14:46:00,54.3,20.2,21.70,East,90,7.2,7.2,26,0.00,,---,0.13,VWS V14.01,2013-04-25 20:46:00,
2013-04-25 14:51:00,53.2,20.1,21.70,ESE,112,0.0,0.0,27,0.00,,---,0.13,VWS V14.01,2013-04-25 20:51:00,
2013-04-25 14:56:00,54.5,20.3,21.70,NW,315,2.2,2.2,26,0.00,,---,0.13,VWS V14.01,2013-04-25 20:56:00,
2013-04-25 15:01:00,54.1,20.0,21.70,SSW,202,2.2,2.2,26,0.00,,---,0.13,VWS V14.01,2013-04-25 21:01:00,
2013-04-25 15:06:00,52.5,18.6,21.70,East,90,5.4,5.4,26,0.00,,---,0.13,VWS V14.01,2013-04-25 21:06:00,
2013-04-25 15:11:00,52.9,19.8,21.70,ESE,112,5.4,5.4,27,0.00,,---,0.13,VWS V14.01,2013-04-25 21:11:00,
2013-04-25 15:16:00,53.1,20.0,21.70,North,0,0.0,0.0,27,0.00,,---,0.13,VWS V14.01,2013-04-25 21:16:00,
2013-04-25 15:21:00,53.4,19.4,21.70,SE,135,3.1,3.1,26,0.00,,---,0.13,VWS V14.01,2013-04-25 21:21:00,
2013-04-25 15:26:00,53.4,20.3,21.70,SE,135,3.6,4.0,27,0.00,,---,0.13,VWS V14.01,2013-04-25 21:26:00,
2013-04-25 15:31:00,52.5,18.6,21.70,SE,135,6.3,8.3,26,0.00,,---,0.13,VWS V14.01,2013-04-25 21:31:00,
2013-04-25 15:36:00,51.8,18.0,21.70,SE,135,3.1,6.3,26,0.00,,---,0.13,VWS V14.01,2013-04-25 21:36:00,
2013-04-25 15:41:00,50.5,17.8,21.70,SE,135,5.8,7.2,27,0.00,,---,0.13,VWS V14.01,2013-04-25 21:41:00,
2013-04-25 15:46:00,50.9,18.1,21.70,SE,135,3.1,3.1,27,0.00,,---,0.13,VWS V14.01,2013-04-25 21:46:00,
2013-04-25 15:51:00,52.3,18.5,21.70,SW,225,3.6,4.9,26,0.00,,---,0.13,VWS V14.01,2013-04-25 21:51:00,
2013-04-25 15:56:00,52.3,19.4,21.70,SSW,202,3.6,5.4,27,0.00,,---,0.13,VWS V14.01,2013-04-25 21:56:00,
2013-04-25 16:01:00,53.4,19.4,21.70,South,180,0.0,0.0,26,0.00,,---,0.13,VWS V14.01,2013-04-25 22:01:00,
2013-04-25 16:06:00,53.4,20.3,21.70,East,90,6.3,6.3,27,0.00,,---,0.13,VWS V14.01,2013-04-25 22:06:00,
2013-04-25 16:11:00,53.4,19.4,21.70,SSE,158,0.0,0.0,26,0.00,,---,0.13,VWS V14.01,2013-04-25 22:11:00,
2013-04-25 16:17:00,53.6,19.6,21.70,South,180,2.2,4.0,26,0.00,,---,0.13,VWS V14.01,2013-04-25 22:17:00,
2013-04-25 16:22:00,52.9,19.8,21.70,East,90,4.0,6.3,27,0.00,,---,0.13,VWS V14.01,2013-04-25 22:22:00,
2013-04-25 16:27:00,53.1,20.0,21.70,South,180,0.0,0.0,27,0.00,,---,0.13,VWS V14.01,2013-04-25 22:27:00,
2013-04-25 16:32:00,55.4,20.2,21.70,SSW,202,0.0,4.0,25,0.00,,---,0.13,VWS V14.01,2013-04-25 22:32:00,
2013-04-25 16:37:00,55.6,20.3,21.70,SE,135,0.0,0.0,25,0.00,,---,0.13,VWS V14.01,2013-04-25 22:37:00,
2013-04-25 16:42:00,54.5,20.3,21.70,East,90,3.6,3.6,26,0.00,,---,0.13,VWS V14.01,2013-04-25 22:42:00,
2013-04-25 16:47:00,54.3,20.2,21.70,South,180,0.0,0.0,26,0.00,,---,0.13,VWS V14.01,2013-04-25 22:47:00,
2013-04-25 16:52:00,54.9,20.6,21.70,SE,135,4.9,4.9,26,0.00,,---,0.13,VWS V14.01,2013-04-25 22:52:00,
2013-04-25 16:57:00,55.0,20.8,21.70,SE,135,2.2,2.2,26,0.00,,---,0.13,VWS V14.01,2013-04-25 22:57:00,
2013-04-25 17:02:00,55.0,20.8,21.70,SE,135,3.6,4.0,26,0.00,,---,0.13,VWS V14.01,2013-04-25 23:02:00,
2013-04-25 17:07:00,54.1,20.0,21.70,SW,225,0.0,2.7,26,0.00,,---,0.13,VWS V14.01,2013-04-25 23:07:00,
2013-04-25 17:12:00,54.5,20.3,21.70,South,180,0.0,3.6,26,0.00,,---,0.13,VWS V14.01,2013-04-25 23:12:00,
2013-04-25 17:18:00,54.0,19.9,21.70,SE,135,5.4,5.8,26,0.00,,---,0.13,VWS V14.01,2013-04-25 23:18:00,
2013-04-25 17:23:00,52.5,18.6,21.70,SE,135,2.7,5.8,26,0.00,,---,0.13,VWS V14.01,2013-04-25 23:23:00,
2013-04-25 17:28:00,53.1,19.1,21.70,SE,135,0.0,0.0,26,0.00,,---,0.13,VWS V14.01,2013-04-25 23:28:00,
2013-04-25 17:33:00,53.2,20.1,21.73,East,90,5.4,5.4,27,0.00,,---,0.13,VWS V14.01,2013-04-25 23:33:00,
2013-04-25 17:38:00,51.8,18.9,21.73,East,90,2.7,2.7,27,0.00,,---,0.13,VWS V14.01,2013-04-25 23:38:00,
2013-04-25 17:43:00,49.5,16.9,21.73,SE,135,6.7,6.7,27,0.00,,---,0.13,VWS V14.01,2013-04-25 23:43:00,
2013-04-25 17:48:00,48.7,16.3,21.73,SE,135,0.0,0.0,27,0.00,,---,0.13,VWS V14.01,2013-04-25 23:48:00,
2013-04-25 17:53:00,48.0,16.5,21.73,SE,135,3.1,3.6,28,0.00,,---,0.13,VWS V14.01,2013-04-25 23:53:00,
2013-04-25 17:58:00,47.8,16.3,21.73,SE,135,3.1,3.6,28,0.00,,---,0.13,VWS V14.01,2013-04-25 23:58:00,
2013-04-25 18:03:00,47.7,16.2,21.73,SE,135,3.6,5.4,28,0.00,,---,0.13,VWS V14.01,2013-04-26 00:03:00,
2013-04-25 18:08:00,47.5,16.0,21.73,SE,135,7.2,7.2,28,0.00,,---,0.13,VWS V14.01,2013-04-26 00:08:00,
2013-04-25 18:13:00,47.3,15.9,21.73,SE,135,3.6,4.0,28,0.00,,---,0.13,VWS V14.01,2013-04-26 00:13:00,
2013-04-25 18:18:00,47.3,15.9,21.70,East,90,3.6,5.4,28,0.00,,---,0.13,VWS V14.01,2013-04-26 00:18:00,
2013-04-25 18:23:00,46.9,15.6,21.70,SE,135,4.0,6.7,28,0.00,,---,0.13,VWS V14.01,2013-04-26 00:23:00,
2013-04-25 18:29:00,46.4,15.1,21.70,East,90,3.1,4.5,28,0.00,,---,0.13,VWS V14.01,2013-04-26 00:29:00,
2013-04-25 18:34:00,46.4,15.9,21.73,SE,135,0.0,2.2,29,0.00,,---,0.13,VWS V14.01,2013-04-26 00:34:00,
2013-04-25 18:39:00,46.0,14.8,21.73,SE,135,5.8,5.8,28,0.00,,---,0.13,VWS V14.01,2013-04-26 00:39:00,
2013-04-25 18:44:00,45.5,15.1,21.73,SE,135,0.0,5.8,29,0.00,,---,0.13,VWS V14.01,2013-04-26 00:44:00,
2013-04-25 18:49:00,45.1,14.8,21.73,South,180,0.0,0.0,29,0.00,,---,0.13,VWS V14.01,2013-04-26 00:49:00,
2013-04-25 18:54:00,44.4,14.9,21.73,SE,135,0.0,0.0,30,0.00,,---,0.13,VWS V14.01,2013-04-26 00:54:00,
2013-04-25 18:59:00,43.9,14.5,21.73,SE,135,0.0,0.0,30,0.00,,---,0.13,VWS V14.01,2013-04-26 00:59:00,
2013-04-25 19:04:00,43.7,14.3,21.73,South,180,0.0,0.0,30,0.00,,---,0.13,VWS V14.01,2013-04-26 01:04:00,
2013-04-25 19:09:00,43.0,13.7,21.73,South,180,0.0,0.0,30,0.00,,---,0.13,VWS V14.01,2013-04-26 01:09:00,
2013-04-25 19:14:00,42.3,13.1,21.73,South,180,0.0,0.0,30,0.00,,---,0.13,VWS V14.01,2013-04-26 01:14:00,
2013-04-25 19:19:00,41.5,13.2,21.73,South,180,0.0,0.0,31,0.00,,---,0.13,VWS V14.01,2013-04-26 01:19:00,
2013-04-25 19:24:00,40.8,13.3,21.73,South,180,0.0,0.0,32,0.00,,---,0.13,VWS V14.01,2013-04-26 01:24:00,
2013-04-25 19:29:00,40.3,13.5,21.73,South,180,0.0,0.0,33,0.00,,---,0.13,VWS V14.01,2013-04-26 01:29:00,
2013-04-25 19:34:00,39.4,13.4,21.73,South,180,0.0,0.0,34,0.00,,---,0.13,VWS V14.01,2013-04-26 01:34:00,
2013-04-25 19:40:00,38.7,15.3,21.73,South,180,0.0,0.0,38,0.00,,---,0.13,VWS V14.01,2013-04-26 01:40:00,
2013-04-25 19:45:00,37.9,14.6,21.73,South,180,0.0,0.0,38,0.00,,---,0.13,VWS V14.01,2013-04-26 01:45:00,
2013-04-25 19:50:00,36.9,14.8,21.73,South,180,0.0,0.0,40,0.00,,---,0.13,VWS V14.01,2013-04-26 01:50:00,
2013-04-25 19:55:00,36.3,14.3,21.73,South,180,0.0,0.0,40,0.00,,---,0.13,VWS V14.01,2013-04-26 01:55:00,
2013-04-25 20:00:00,35.6,14.2,21.73,South,180,0.0,0.0,41,0.00,,---,0.13,VWS V14.01,2013-04-26 02:00:00,
2013-04-25 20:05:00,34.9,14.1,21.73,South,180,0.0,0.0,42,0.00,,---,0.13,VWS V14.01,2013-04-26 02:05:00,
2013-04-25 20:10:00,34.5,13.8,21.73,South,180,0.0,0.0,42,0.00,,---,0.13,VWS V14.01,2013-04-26 02:10:00,
2013-04-25 20:15:00,33.8,13.7,21.73,SW,225,0.0,0.0,43,0.00,,---,0.13,VWS V14.01,2013-04-26 02:15:00,
2013-04-25 20:20:00,33.1,14.6,21.73,SW,225,0.0,0.0,46,0.00,,---,0.13,VWS V14.01,2013-04-26 02:20:00,
2013-04-25 20:26:00,32.7,14.2,21.73,West,270,0.0,0.0,46,0.00,,---,0.13,VWS V14.01,2013-04-26 02:26:00,
2013-04-25 20:31:00,32.2,16.1,21.73,West,270,0.0,0.0,51,0.00,,---,0.13,VWS V14.01,2013-04-26 02:31:00,
2013-04-25 20:36:00,31.6,15.1,21.73,West,270,0.0,0.0,50,0.00,,---,0.13,VWS V14.01,2013-04-26 02:36:00,
2013-04-25 20:41:00,31.3,14.4,21.73,West,270,0.0,0.0,49,0.00,,---,0.13,VWS V14.01,2013-04-26 02:41:00,
2013-04-25 20:46:00,31.1,14.6,21.76,West,270,0.0,0.0,50,0.00,,---,0.13,VWS V14.01,2013-04-26 02:46:00,
2013-04-25 20:51:00,30.6,14.1,21.76,West,270,0.0,0.0,50,0.00,,---,0.13,VWS V14.01,2013-04-26 02:51:00,
2013-04-25 20:56:00,30.2,14.7,21.76,West,270,0.0,0.0,52,0.00,,---,0.13,VWS V14.01,2013-04-26 02:56:00,
2013-04-25 21:01:00,29.7,14.2,21.76,West,270,0.0,0.0,52,0.00,,---,0.13,VWS V14.01,2013-04-26 03:01:00,
2013-04-25 21:06:00,29.5,14.5,21.76,West,270,0.0,0.0,53,0.00,,---,0.13,VWS V14.01,2013-04-26 03:06:00,
2013-04-25 21:12:00,29.5,14.5,21.76,West,270,0.0,0.0,53,0.00,,---,0.13,VWS V14.01,2013-04-26 03:12:00,
2013-04-25 21:17:00,29.1,14.1,21.76,West,270,0.0,0.0,53,0.00,,---,0.13,VWS V14.01,2013-04-26 03:17:00,
2013-04-25 21:22:00,29.1,15.0,21.76,West,270,0.0,0.0,55,0.00,,---,0.13,VWS V14.01,2013-04-26 03:22:00,
2013-04-25 21:27:00,28.8,13.8,21.76,West,270,0.0,0.0,53,0.00,,---,0.13,VWS V14.01,2013-04-26 03:27:00,
2013-04-25 21:32:00,29.1,15.0,21.79,West,270,0.0,0.0,55,0.00,,---,0.13,VWS V14.01,2013-04-26 03:32:00,
2013-04-25 21:37:00,29.1,15.0,21.79,West,270,0.0,0.0,55,0.00,,---,0.13,VWS V14.01,2013-04-26 03:37:00,
2013-04-25 21:42:00,28.9,14.0,21.79,West,270,0.0,0.0,53,0.00,,---,0.13,VWS V14.01,2013-04-26 03:42:00,
2013-04-25 21:47:00,28.9,14.0,21.79,West,270,0.0,0.0,53,0.00,,---,0.13,VWS V14.01,2013-04-26 03:47:00,
2013-04-25 21:53:00,29.1,15.4,21.79,West,270,0.0,0.0,56,0.00,,---,0.13,VWS V14.01,2013-04-26 03:53:00,
2013-04-25 21:58:00,28.8,14.6,21.79,West,270,0.0,0.0,55,0.00,,---,0.13,VWS V14.01,2013-04-26 03:58:00,
2013-04-25 22:01:00,28.6,14.1,21.76,West,270,0.0,0.0,54,0.00,,---,0.13,VWS V14.01,2013-04-26 04:01:00,
2013-04-25 22:02:00,28.6,14.1,21.76,West,270,0.0,0.0,54,0.00,,---,0.13,VWS V14.01,2013-04-26 04:02:00,
2013-04-25 22:03:00,28.8,14.2,21.76,West,270,0.0,0.0,54,0.00,,---,0.13,VWS V14.01,2013-04-26 04:03:00,
2013-04-25 22:07:00,28.9,14.8,21.76,West,270,0.0,0.0,55,0.00,,---,0.13,VWS V14.01,2013-04-26 04:07:00,
2013-04-25 22:12:00,28.8,14.2,21.76,West,270,0.0,0.0,54,0.00,,---,0.13,VWS V14.01,2013-04-26 04:12:00,
2013-04-25 22:17:00,28.6,14.5,21.76,West,270,0.0,0.0,55,0.00,,---,0.13,VWS V14.01,2013-04-26 04:17:00,
2013-04-25 22:22:00,28.4,14.7,21.76,West,270,0.0,0.0,56,0.00,,---,0.13,VWS V14.01,2013-04-26 04:22:00,
2013-04-25 22:27:00,28.4,14.3,21.76,West,270,0.0,0.0,55,0.00,,---,0.13,VWS V14.01,2013-04-26 04:27:00,
2013-04-25 22:32:00,28.0,14.4,21.76,West,270,0.0,0.0,56,0.00,,---,0.13,VWS V14.01,2013-04-26 04:32:00,
2013-04-25 22:37:00,28.6,14.5,21.76,West,270,0.0,0.0,55,0.00,,---,0.13,VWS V14.01,2013-04-26 04:37:00,
2013-04-25 22:42:00,28.4,13.9,21.76,West,270,0.0,0.0,54,0.00,,---,0.13,VWS V14.01,2013-04-26 04:42:00,
2013-04-25 22:47:00,28.9,14.0,21.79,West,270,0.0,0.0,53,0.00,,---,0.13,VWS V14.01,2013-04-26 04:47:00,
2013-04-25 22:52:00,28.9,13.5,21.79,West,270,0.0,0.0,52,0.00,,---,0.13,VWS V14.01,2013-04-26 04:52:00,
2013-04-25 22:57:00,28.8,13.8,21.79,West,270,0.0,0.0,53,0.00,,---,0.13,VWS V14.01,2013-04-26 04:57:00,
2013-04-25 23:03:00,28.8,14.2,21.79,West,270,0.0,0.0,54,0.00,,---,0.13,VWS V14.01,2013-04-26 05:03:00,
2013-04-25 23:08:00,28.6,14.1,21.79,West,270,0.0,0.0,54,0.00,,---,0.13,VWS V14.01,2013-04-26 05:08:00,
2013-04-25 23:13:00,28.6,14.1,21.79,West,270,0.0,0.0,54,0.00,,---,0.13,VWS V14.01,2013-04-26 05:13:00,
2013-04-25 23:18:00,28.2,13.7,21.79,West,270,0.0,0.0,54,0.00,,---,0.13,VWS V14.01,2013-04-26 05:18:00,
2013-04-25 23:23:00,28.0,14.8,21.79,West,270,0.0,0.0,57,0.00,,---,0.13,VWS V14.01,2013-04-26 05:23:00,
2013-04-25 23:28:00,27.7,14.4,21.79,West,270,0.0,0.0,57,0.00,,---,0.13,VWS V14.01,2013-04-26 05:28:00,
2013-04-25 23:33:00,27.3,14.5,21.79,West,270,0.0,0.0,58,0.00,,---,0.13,VWS V14.01,2013-04-26 05:33:00,
2013-04-25 23:38:00,27.1,14.7,21.79,West,270,0.0,0.0,59,0.00,,---,0.13,VWS V14.01,2013-04-26 05:38:00,
2013-04-25 23:43:00,27.0,14.6,21.79,West,270,0.0,0.0,59,0.00,,---,0.13,VWS V14.01,2013-04-26 05:43:00,
2013-04-25 23:48:00,27.0,14.9,21.79,West,270,0.0,0.0,60,0.00,,---,0.13,VWS V14.01,2013-04-26 05:48:00,
2013-04-25 23:53:00,26.8,15.1,21.79,West,270,0.0,0.0,61,0.00,,---,0.13,VWS V14.01,2013-04-26 05:53:00,
2013-04-25 23:58:00,27.0,15.7,21.79,West,270,0.0,0.0,62,0.00,,---,0.13,VWS V14.01,2013-04-26 05:58:00,